<?xml version="1.0" encoding="UTF-8" standalone="no" ?>
<gpx xmlns="http://www.topografix.com/GPX/1/1" xmlns:xsi="http://www.w3.org/2001/XMLSchema-instance" xsi:schemaLocation="http://www.topografix.com/GPX/1/1 http://www.topografix.com/GPX/1/1/gpx.xsd" version="1.1" creator="VisuGPX - https://www.visugpx.com">
  <metadata>
    <name>Rando LN</name>
  </metadata>
  <trk>
    <name><![CDATA[Le Gazy]]></name>
    <extensions>
      <line xmlns="http://www.topografix.com/GPX/gpx_style/0/2">
        <color>00fbff</color>
        <width>4</width>
      </line>
    </extensions>
    <trkseg>
      <trkpt lat="44.44766" lon="3.19525">
        <ele>536.2</ele>
      </trkpt>
      <trkpt lat="44.44766" lon="3.19525">
        <ele>536.2</ele>
      </trkpt>
      <trkpt lat="44.44766" lon="3.19525">
        <ele>536.2</ele>
      </trkpt>
      <trkpt lat="44.44687" lon="3.19566">
        <ele>542.1</ele>
      </trkpt>
      <trkpt lat="44.44618" lon="3.1963">
        <ele>545.4</ele>
      </trkpt>
      <trkpt lat="44.44507" lon="3.19686">
        <ele>546.8</ele>
      </trkpt>
      <trkpt lat="44.44454" lon="3.19676">
        <ele>545.3</ele>
      </trkpt>
      <trkpt lat="44.44338" lon="3.19612">
        <ele>534.063</ele>
        <time>2019-07-07T16:56:30Z</time>
      </trkpt>
      <trkpt lat="44.44333" lon="3.19693">
        <ele>528.132</ele>
        <time>2019-07-07T16:56:50Z</time>
      </trkpt>
      <trkpt lat="44.44245" lon="3.19878">
        <ele>530.992</ele>
        <time>2019-07-07T16:57:10Z</time>
      </trkpt>
      <trkpt lat="44.44034" lon="3.19803">
        <ele>525.211</ele>
        <time>2019-07-07T16:57:30Z</time>
      </trkpt>
      <trkpt lat="44.4399" lon="3.19814">
        <ele>525.308</ele>
        <time>2019-07-07T16:57:50Z</time>
      </trkpt>
      <trkpt lat="44.43953" lon="3.1985">
        <ele>525.587</ele>
        <time>2019-07-07T16:58:10Z</time>
      </trkpt>
      <trkpt lat="44.43745" lon="3.19971">
        <ele>533.231</ele>
        <time>2019-07-07T16:58:30Z</time>
      </trkpt>
      <trkpt lat="44.43602" lon="3.20231">
        <ele>541.735</ele>
        <time>2019-07-07T16:58:50Z</time>
      </trkpt>
      <trkpt lat="44.4343" lon="3.20565">
        <ele>551.172</ele>
        <time>2019-07-07T16:59:10Z</time>
      </trkpt>
      <trkpt lat="44.43379" lon="3.20733">
        <ele>552.776</ele>
        <time>2019-07-07T16:59:30Z</time>
      </trkpt>
      <trkpt lat="44.43345" lon="3.20922">
        <ele>555.393</ele>
        <time>2019-07-07T16:59:50Z</time>
      </trkpt>
      <trkpt lat="44.43355" lon="3.21357">
        <ele>557.522</ele>
        <time>2019-07-07T17:00:10Z</time>
      </trkpt>
      <trkpt lat="44.43322" lon="3.21411">
        <ele>559.138</ele>
        <time>2019-07-07T17:00:30Z</time>
      </trkpt>
      <trkpt lat="44.43322" lon="3.21411">
        <ele>559.138</ele>
        <time>2019-07-07T17:00:30Z</time>
      </trkpt>
      <trkpt lat="44.43322" lon="3.21411">
        <ele>559.138</ele>
        <time>2019-07-07T17:00:30Z</time>
      </trkpt>
      <trkpt lat="44.43301" lon="3.21424">
        <ele>560.999</ele>
        <time>2019-07-07T17:00:50Z</time>
      </trkpt>
      <trkpt lat="44.43313" lon="3.21456">
        <ele>562.207</ele>
        <time>2019-07-07T17:01:10Z</time>
      </trkpt>
      <trkpt lat="44.43341" lon="3.21462">
        <ele>560.727</ele>
        <time>2019-07-07T17:01:30Z</time>
      </trkpt>
      <trkpt lat="44.43377" lon="3.21493">
        <ele>562.108</ele>
        <time>2019-07-07T17:01:50Z</time>
      </trkpt>
      <trkpt lat="44.43409" lon="3.21499">
        <ele>565.153</ele>
        <time>2019-07-07T17:02:10Z</time>
      </trkpt>
      <trkpt lat="44.43461" lon="3.21535">
        <ele>570.247</ele>
        <time>2019-07-07T17:02:30Z</time>
      </trkpt>
      <trkpt lat="44.43546" lon="3.2163">
        <ele>569.561</ele>
        <time>2019-07-07T17:02:50Z</time>
      </trkpt>
      <trkpt lat="44.43563" lon="3.21671">
        <ele>572.988</ele>
        <time>2019-07-07T17:03:10Z</time>
      </trkpt>
      <trkpt lat="44.43595" lon="3.21701">
        <ele>578.812</ele>
        <time>2019-07-07T17:03:30Z</time>
      </trkpt>
      <trkpt lat="44.43749" lon="3.21762">
        <ele>599.699</ele>
        <time>2019-07-07T17:03:50Z</time>
      </trkpt>
      <trkpt lat="44.43812" lon="3.21794">
        <ele>615.458</ele>
        <time>2019-07-07T17:04:10Z</time>
      </trkpt>
      <trkpt lat="44.43881" lon="3.21818">
        <ele>609.844</ele>
        <time>2019-07-07T17:04:30Z</time>
      </trkpt>
      <trkpt lat="44.43966" lon="3.2197">
        <ele>622.565</ele>
        <time>2019-07-07T17:04:50Z</time>
      </trkpt>
      <trkpt lat="44.43968" lon="3.22138">
        <ele>651.768</ele>
        <time>2019-07-07T17:05:10Z</time>
      </trkpt>
      <trkpt lat="44.43993" lon="3.22295">
        <ele>670.214</ele>
        <time>2019-07-07T17:05:30Z</time>
      </trkpt>
      <trkpt lat="44.43966" lon="3.22257">
        <ele>681.808</ele>
        <time>2019-07-07T17:05:50Z</time>
      </trkpt>
      <trkpt lat="44.43974" lon="3.22325">
        <ele>682.32</ele>
        <time>2019-07-07T17:06:10Z</time>
      </trkpt>
      <trkpt lat="44.43957" lon="3.2239">
        <ele>696.524</ele>
        <time>2019-07-07T17:06:30Z</time>
      </trkpt>
      <trkpt lat="44.4395" lon="3.22465">
        <ele>702.788</ele>
        <time>2019-07-07T17:06:50Z</time>
      </trkpt>
      <trkpt lat="44.43929" lon="3.22355">
        <ele>714.615</ele>
        <time>2019-07-07T17:07:10Z</time>
      </trkpt>
      <trkpt lat="44.43926" lon="3.22472">
        <ele>715.999</ele>
        <time>2019-07-07T17:07:30Z</time>
      </trkpt>
      <trkpt lat="44.4396" lon="3.2259">
        <ele>724.486</ele>
        <time>2019-07-07T17:07:50Z</time>
      </trkpt>
      <trkpt lat="44.43982" lon="3.22635">
        <ele>726.485</ele>
        <time>2019-07-07T17:08:10Z</time>
      </trkpt>
      <trkpt lat="44.43981" lon="3.2276">
        <ele>735.221</ele>
        <time>2019-07-07T17:08:30Z</time>
      </trkpt>
      <trkpt lat="44.43969" lon="3.2288">
        <ele>737.671</ele>
        <time>2019-07-07T17:08:50Z</time>
      </trkpt>
      <trkpt lat="44.43977" lon="3.23072">
        <ele>746.341</ele>
        <time>2019-07-07T17:09:10Z</time>
      </trkpt>
      <trkpt lat="44.43954" lon="3.23139">
        <ele>746.015</ele>
        <time>2019-07-07T17:09:30Z</time>
      </trkpt>
      <trkpt lat="44.43929" lon="3.23208">
        <ele>742.908</ele>
        <time>2019-07-07T17:09:50Z</time>
      </trkpt>
      <trkpt lat="44.4395" lon="3.23375">
        <ele>753.271</ele>
        <time>2019-07-07T17:10:10Z</time>
      </trkpt>
      <trkpt lat="44.43981" lon="3.23526">
        <ele>762.565</ele>
        <time>2019-07-07T17:10:30Z</time>
      </trkpt>
      <trkpt lat="44.43933" lon="3.23724">
        <ele>784.199</ele>
        <time>2019-07-07T17:10:50Z</time>
      </trkpt>
      <trkpt lat="44.43945" lon="3.23797">
        <ele>794.866</ele>
        <time>2019-07-07T17:11:10Z</time>
      </trkpt>
      <trkpt lat="44.43945" lon="3.23868">
        <ele>795.89</ele>
        <time>2019-07-07T17:11:30Z</time>
      </trkpt>
      <trkpt lat="44.4397" lon="3.23909">
        <ele>798.787</ele>
        <time>2019-07-07T17:11:50Z</time>
      </trkpt>
      <trkpt lat="44.43941" lon="3.23974">
        <ele>801.376</ele>
        <time>2019-07-07T17:12:10Z</time>
      </trkpt>
      <trkpt lat="44.43908" lon="3.24215">
        <ele>812.752</ele>
        <time>2019-07-07T17:12:30Z</time>
      </trkpt>
      <trkpt lat="44.43946" lon="3.24099">
        <ele>812.645</ele>
        <time>2019-07-07T17:12:50Z</time>
      </trkpt>
      <trkpt lat="44.44014" lon="3.24013">
        <ele>808.747</ele>
        <time>2019-07-07T17:13:10Z</time>
      </trkpt>
      <trkpt lat="44.44126" lon="3.23946">
        <ele>811.311</ele>
        <time>2019-07-07T17:13:30Z</time>
      </trkpt>
      <trkpt lat="44.44177" lon="3.23879">
        <ele>810.308</ele>
        <time>2019-07-07T17:13:50Z</time>
      </trkpt>
      <trkpt lat="44.44274" lon="3.2381">
        <ele>806.268</ele>
        <time>2019-07-07T17:14:10Z</time>
      </trkpt>
      <trkpt lat="44.44301" lon="3.23856">
        <ele>813.422</ele>
        <time>2019-07-07T17:14:30Z</time>
      </trkpt>
      <trkpt lat="44.44333" lon="3.23883">
        <ele>816.646</ele>
        <time>2019-07-07T17:14:50Z</time>
      </trkpt>
      <trkpt lat="44.4434" lon="3.23991">
        <ele>830.533</ele>
        <time>2019-07-07T17:15:10Z</time>
      </trkpt>
      <trkpt lat="44.44432" lon="3.24219">
        <ele>848.197</ele>
        <time>2019-07-07T17:15:30Z</time>
      </trkpt>
      <trkpt lat="44.44476" lon="3.24342">
        <ele>859.874</ele>
        <time>2019-07-07T17:15:50Z</time>
      </trkpt>
      <trkpt lat="44.44493" lon="3.24443">
        <ele>869.643</ele>
        <time>2019-07-07T17:16:10Z</time>
      </trkpt>
      <trkpt lat="44.4447" lon="3.24484">
        <ele>870.979</ele>
        <time>2019-07-07T17:16:30Z</time>
      </trkpt>
      <trkpt lat="44.44477" lon="3.24568">
        <ele>874.161</ele>
        <time>2019-07-07T17:16:50Z</time>
      </trkpt>
      <trkpt lat="44.44501" lon="3.24643">
        <ele>877.221</ele>
        <time>2019-07-07T17:17:10Z</time>
      </trkpt>
      <trkpt lat="44.44516" lon="3.24665">
        <ele>879.313</ele>
        <time>2019-07-07T17:17:30Z</time>
      </trkpt>
      <trkpt lat="44.44553" lon="3.24863">
        <ele>879.508</ele>
        <time>2019-07-07T17:17:50Z</time>
      </trkpt>
      <trkpt lat="44.4456" lon="3.24942">
        <ele>878.15</ele>
        <time>2019-07-07T17:18:10Z</time>
      </trkpt>
      <trkpt lat="44.44586" lon="3.25005">
        <ele>874.864</ele>
        <time>2019-07-07T17:18:30Z</time>
      </trkpt>
      <trkpt lat="44.44581" lon="3.25097">
        <ele>877.918</ele>
        <time>2019-07-07T17:18:50Z</time>
      </trkpt>
      <trkpt lat="44.44602" lon="3.252">
        <ele>871.745</ele>
        <time>2019-07-07T17:19:10Z</time>
      </trkpt>
      <trkpt lat="44.44624" lon="3.25246">
        <ele>868.159</ele>
        <time>2019-07-07T17:19:30Z</time>
      </trkpt>
      <trkpt lat="44.44633" lon="3.25321">
        <ele>870.996</ele>
        <time>2019-07-07T17:19:50Z</time>
      </trkpt>
      <trkpt lat="44.44656" lon="3.25347">
        <ele>869.325</ele>
        <time>2019-07-07T17:20:10Z</time>
      </trkpt>
      <trkpt lat="44.44674" lon="3.25383">
        <ele>870.721</ele>
        <time>2019-07-07T17:20:30Z</time>
      </trkpt>
      <trkpt lat="44.44748" lon="3.25491">
        <ele>867.338</ele>
        <time>2019-07-07T17:20:50Z</time>
      </trkpt>
      <trkpt lat="44.448" lon="3.25506">
        <ele>857.47</ele>
        <time>2019-07-07T17:21:10Z</time>
      </trkpt>
      <trkpt lat="44.44849" lon="3.25633">
        <ele>850.717</ele>
        <time>2019-07-07T17:21:30Z</time>
      </trkpt>
      <trkpt lat="44.44884" lon="3.2581">
        <ele>850.208</ele>
        <time>2019-07-07T17:21:50Z</time>
      </trkpt>
      <trkpt lat="44.44898" lon="3.25924">
        <ele>850.117</ele>
        <time>2019-07-07T17:22:10Z</time>
      </trkpt>
      <trkpt lat="44.44881" lon="3.26087">
        <ele>864.931</ele>
        <time>2019-07-07T17:22:30Z</time>
      </trkpt>
      <trkpt lat="44.45068" lon="3.26373">
        <ele>887.425</ele>
        <time>2019-07-07T17:22:50Z</time>
      </trkpt>
      <trkpt lat="44.4509" lon="3.26526">
        <ele>885.522</ele>
        <time>2019-07-07T17:23:10Z</time>
      </trkpt>
      <trkpt lat="44.45148" lon="3.26604">
        <ele>878.966</ele>
        <time>2019-07-07T17:23:30Z</time>
      </trkpt>
      <trkpt lat="44.45156" lon="3.2664">
        <ele>876.193</ele>
        <time>2019-07-07T17:23:50Z</time>
      </trkpt>
      <trkpt lat="44.45105" lon="3.26728">
        <ele>873.332</ele>
        <time>2019-07-07T17:24:10Z</time>
      </trkpt>
      <trkpt lat="44.45092" lon="3.26802">
        <ele>858.018</ele>
        <time>2019-07-07T17:24:30Z</time>
      </trkpt>
      <trkpt lat="44.45065" lon="3.26825">
        <ele>856.021</ele>
        <time>2019-07-07T17:24:50Z</time>
      </trkpt>
      <trkpt lat="44.45033" lon="3.2683">
        <ele>859.741</ele>
        <time>2019-07-07T17:25:10Z</time>
      </trkpt>
      <trkpt lat="44.45006" lon="3.26881">
        <ele>856.805</ele>
        <time>2019-07-07T17:25:30Z</time>
      </trkpt>
      <trkpt lat="44.44996" lon="3.2695">
        <ele>854.408</ele>
        <time>2019-07-07T17:25:50Z</time>
      </trkpt>
      <trkpt lat="44.45006" lon="3.2714">
        <ele>845.936</ele>
        <time>2019-07-07T17:26:10Z</time>
      </trkpt>
      <trkpt lat="44.44977" lon="3.27288">
        <ele>835.16</ele>
        <time>2019-07-07T17:26:30Z</time>
      </trkpt>
      <trkpt lat="44.44968" lon="3.27452">
        <ele>829.894</ele>
        <time>2019-07-07T17:26:50Z</time>
      </trkpt>
      <trkpt lat="44.44978" lon="3.27723">
        <ele>817.741</ele>
        <time>2019-07-07T17:27:10Z</time>
      </trkpt>
      <trkpt lat="44.44966" lon="3.27904">
        <ele>818.185</ele>
        <time>2019-07-07T17:27:30Z</time>
      </trkpt>
      <trkpt lat="44.44926" lon="3.27985">
        <ele>821.182</ele>
        <time>2019-07-07T17:27:50Z</time>
      </trkpt>
      <trkpt lat="44.44861" lon="3.28144">
        <ele>822.051</ele>
        <time>2019-07-07T17:28:10Z</time>
      </trkpt>
      <trkpt lat="44.4483" lon="3.28314">
        <ele>817.997</ele>
        <time>2019-07-07T17:28:30Z</time>
      </trkpt>
      <trkpt lat="44.44814" lon="3.28427">
        <ele>819.799</ele>
        <time>2019-07-07T17:28:50Z</time>
      </trkpt>
      <trkpt lat="44.44786" lon="3.28504">
        <ele>820.107</ele>
        <time>2019-07-07T17:29:10Z</time>
      </trkpt>
      <trkpt lat="44.44726" lon="3.28538">
        <ele>818.827</ele>
        <time>2019-07-07T17:29:30Z</time>
      </trkpt>
      <trkpt lat="44.44613" lon="3.28568">
        <ele>817.808</ele>
        <time>2019-07-07T17:29:50Z</time>
      </trkpt>
      <trkpt lat="44.44554" lon="3.28543">
        <ele>822.323</ele>
        <time>2019-07-07T17:30:10Z</time>
      </trkpt>
      <trkpt lat="44.44509" lon="3.28553">
        <ele>826.047</ele>
        <time>2019-07-07T17:30:30Z</time>
      </trkpt>
      <trkpt lat="44.4443" lon="3.28594">
        <ele>827.191</ele>
        <time>2019-07-07T17:30:50Z</time>
      </trkpt>
      <trkpt lat="44.44317" lon="3.28605">
        <ele>830.088</ele>
        <time>2019-07-07T17:31:10Z</time>
      </trkpt>
      <trkpt lat="44.44162" lon="3.28685">
        <ele>827.792</ele>
        <time>2019-07-07T17:31:30Z</time>
      </trkpt>
      <trkpt lat="44.4412" lon="3.28728">
        <ele>829.019</ele>
        <time>2019-07-07T17:31:50Z</time>
      </trkpt>
      <trkpt lat="44.44094" lon="3.28788">
        <ele>827.268</ele>
        <time>2019-07-07T17:32:10Z</time>
      </trkpt>
      <trkpt lat="44.44088" lon="3.28872">
        <ele>830.344</ele>
        <time>2019-07-07T17:32:30Z</time>
      </trkpt>
      <trkpt lat="44.4406" lon="3.28922">
        <ele>834.291</ele>
        <time>2019-07-07T17:32:50Z</time>
      </trkpt>
      <trkpt lat="44.44044" lon="3.28999">
        <ele>841.281</ele>
        <time>2019-07-07T17:33:10Z</time>
      </trkpt>
      <trkpt lat="44.44064" lon="3.291">
        <ele>841.019</ele>
        <time>2019-07-07T17:33:30Z</time>
      </trkpt>
      <trkpt lat="44.44045" lon="3.29195">
        <ele>840.908</ele>
        <time>2019-07-07T17:33:50Z</time>
      </trkpt>
      <trkpt lat="44.44053" lon="3.29244">
        <ele>844.593</ele>
        <time>2019-07-07T17:34:10Z</time>
      </trkpt>
      <trkpt lat="44.44028" lon="3.29361">
        <ele>844.067</ele>
        <time>2019-07-07T17:34:30Z</time>
      </trkpt>
      <trkpt lat="44.43941" lon="3.29354">
        <ele>851.931</ele>
        <time>2019-07-07T17:34:50Z</time>
      </trkpt>
      <trkpt lat="44.43894" lon="3.29375">
        <ele>853.418</ele>
        <time>2019-07-07T17:35:10Z</time>
      </trkpt>
      <trkpt lat="44.43873" lon="3.29436">
        <ele>848.642</ele>
        <time>2019-07-07T17:35:30Z</time>
      </trkpt>
      <trkpt lat="44.43852" lon="3.29537">
        <ele>852.169</ele>
        <time>2019-07-07T17:35:50Z</time>
      </trkpt>
      <trkpt lat="44.43826" lon="3.29588">
        <ele>857.518</ele>
        <time>2019-07-07T17:36:10Z</time>
      </trkpt>
      <trkpt lat="44.43758" lon="3.29595">
        <ele>860.374</ele>
        <time>2019-07-07T17:36:30Z</time>
      </trkpt>
      <trkpt lat="44.43705" lon="3.29632">
        <ele>857.565</ele>
        <time>2019-07-07T17:36:50Z</time>
      </trkpt>
      <trkpt lat="44.43699" lon="3.29711">
        <ele>856.768</ele>
        <time>2019-07-07T17:37:10Z</time>
      </trkpt>
      <trkpt lat="44.43734" lon="3.29819">
        <ele>846.314</ele>
        <time>2019-07-07T17:37:30Z</time>
      </trkpt>
      <trkpt lat="44.43794" lon="3.29907">
        <ele>839.008</ele>
        <time>2019-07-07T17:37:50Z</time>
      </trkpt>
      <trkpt lat="44.43834" lon="3.29933">
        <ele>837.22</ele>
        <time>2019-07-07T17:38:10Z</time>
      </trkpt>
      <trkpt lat="44.43884" lon="3.29987">
        <ele>839.564</ele>
        <time>2019-07-07T17:38:30Z</time>
      </trkpt>
      <trkpt lat="44.43886" lon="3.30079">
        <ele>844.878</ele>
        <time>2019-07-07T17:38:50Z</time>
      </trkpt>
      <trkpt lat="44.43944" lon="3.30292">
        <ele>853.495</ele>
        <time>2019-07-07T17:39:10Z</time>
      </trkpt>
    </trkseg>
  </trk>
</gpx>